Time,TemperatureF,DewpointF,PressureIn,WindDirection,WindDirectionDegrees,WindSpeedMPH,WindSpeedGustMPH,Humidity,HourlyPrecipIn,Conditions,Clouds,dailyrainin,SoftwareType,DateUTC
2013-06-22 00:01:00,62.6,62.6,30.22,NNE,17,0.0,0.0,100,0.00,,,0.00,WeatherCatV1.15B25,2013-06-22 04:01:00,
2013-06-22 00:06:00,62.3,62.3,30.23,NNE,17,0.0,0.0,100,0.00,,,0.00,WeatherCatV1.15B25,2013-06-22 04:06:00,
2013-06-22 00:11:00,62.2,62.2,30.22,NNE,17,0.0,0.0,100,0.00,,,0.00,WeatherCatV1.15B25,2013-06-22 04:11:00,
2013-06-22 00:16:00,62.0,62.0,30.22,NNE,17,0.0,0.0,100,0.00,,,0.00,WeatherCatV1.15B25,2013-06-22 04:16:00,
2013-06-22 00:21:00,62.0,62.0,30.22,NNE,17,0.0,0.0,100,0.00,,,0.00,WeatherCatV1.15B25,2013-06-22 04:21:00,
2013-06-22 00:26:00,62.0,62.0,30.21,NNE,17,0.0,0.0,100,0.00,,,0.00,WeatherCatV1.15B25,2013-06-22 04:26:00,
2013-06-22 00:31:00,61.7,61.7,30.21,NNE,17,0.0,0.0,100,0.00,,,0.00,WeatherCatV1.15B25,2013-06-22 04:31:00,
2013-06-22 00:36:00,61.6,61.6,30.21,NNE,17,0.0,0.0,100,0.00,,,0.00,WeatherCatV1.15B25,2013-06-22 04:36:00,
2013-06-22 00:41:00,61.6,61.6,30.22,NNE,17,0.0,0.0,100,0.00,,,0.00,WeatherCatV1.15B25,2013-06-22 04:41:00,
2013-06-22 00:46:00,61.6,61.6,30.22,NNE,17,0.0,0.0,100,0.00,,,0.00,WeatherCatV1.15B25,2013-06-22 04:46:00,
2013-06-22 00:51:00,61.6,61.6,30.21,NNE,17,0.0,0.0,100,0.00,,,0.00,WeatherCatV1.15B25,2013-06-22 04:51:00,
2013-06-22 00:56:00,61.6,61.6,30.21,NNE,17,0.0,0.0,100,0.00,,,0.00,WeatherCatV1.15B25,2013-06-22 04:56:00,
2013-06-22 01:01:00,61.6,61.6,30.21,NNE,17,0.0,0.0,100,0.00,,,0.00,WeatherCatV1.15B25,2013-06-22 05:01:00,
2013-06-22 01:06:00,61.6,61.6,30.21,NNE,17,0.0,0.0,100,0.00,,,0.00,WeatherCatV1.15B25,2013-06-22 05:06:00,
2013-06-22 01:11:00,61.6,61.6,30.21,NNE,17,0.0,0.0,100,0.00,,,0.00,WeatherCatV1.15B25,2013-06-22 05:11:00,
2013-06-22 01:16:00,-999.0,32.0,30.22,NNE,17,0.0,0.0,50,0.00,,,0.00,WeatherCatV1.15B25,2013-06-22 05:16:00,
2013-06-22 01:21:00,60.8,60.8,30.22,NNE,17,0.0,0.0,100,0.00,,,0.00,WeatherCatV1.15B25,2013-06-22 05:21:00,
2013-06-22 01:26:00,60.6,60.6,30.21,NNE,17,0.0,0.0,100,0.00,,,0.00,WeatherCatV1.15B25,2013-06-22 05:26:00,
2013-06-22 01:30:00,60.7,60.7,30.21,NNE,17,0.0,0.0,100,0.00,,,0.00,WeatherCatV1.15B25,2013-06-22 05:30:00,
2013-06-22 01:35:00,60.6,60.6,30.21,NNE,17,0.0,0.0,100,0.00,,,0.00,WeatherCatV1.15B25,2013-06-22 05:35:00,
2013-06-22 01:40:00,60.6,60.6,30.22,NNE,17,0.0,0.0,100,0.00,,,0.00,WeatherCatV1.15B25,2013-06-22 05:40:00,
2013-06-22 01:45:00,60.5,60.5,30.22,NNE,17,0.0,0.0,100,0.00,,,0.00,WeatherCatV1.15B25,2013-06-22 05:45:00,
2013-06-22 01:50:00,60.3,60.3,30.22,NNE,17,0.0,0.0,100,0.00,,,0.00,WeatherCatV1.15B25,2013-06-22 05:50:00,
2013-06-22 01:55:00,60.1,60.1,30.22,NNE,17,0.0,0.0,100,0.00,,,0.00,WeatherCatV1.15B25,2013-06-22 05:55:00,
2013-06-22 02:00:00,60.1,60.1,30.22,NNE,17,0.0,0.0,100,0.00,,,0.00,WeatherCatV1.15B25,2013-06-22 06:00:00,
2013-06-22 02:05:00,60.0,60.0,30.22,NNE,17,0.0,0.0,100,0.00,,,0.00,WeatherCatV1.15B25,2013-06-22 06:05:00,
2013-06-22 02:10:00,60.0,60.0,30.22,NNE,17,0.0,0.0,100,0.00,,,0.00,WeatherCatV1.15B25,2013-06-22 06:10:00,
2013-06-22 02:15:00,60.0,60.0,30.22,NNE,17,0.0,0.0,100,0.00,,,0.00,WeatherCatV1.15B25,2013-06-22 06:15:00,
2013-06-22 02:20:00,59.8,59.8,30.22,NNE,17,0.0,0.0,100,0.00,,,0.00,WeatherCatV1.15B25,2013-06-22 06:20:00,
2013-06-22 02:25:00,59.9,59.9,30.21,NNE,17,0.0,0.0,100,0.00,,,0.00,WeatherCatV1.15B25,2013-06-22 06:25:00,
2013-06-22 02:30:00,59.7,59.7,30.21,NNE,17,0.0,0.0,100,0.00,,,0.00,WeatherCatV1.15B25,2013-06-22 06:30:00,
2013-06-22 02:35:00,59.7,59.7,30.21,NNE,17,0.0,0.0,100,0.00,,,0.00,WeatherCatV1.15B25,2013-06-22 06:35:00,
2013-06-22 02:40:00,59.7,59.7,30.21,NNE,17,0.0,0.0,100,0.00,,,0.00,WeatherCatV1.15B25,2013-06-22 06:40:00,
2013-06-22 02:45:00,59.9,59.9,30.22,NNE,17,0.0,0.0,100,0.00,,,0.00,WeatherCatV1.15B25,2013-06-22 06:45:00,
2013-06-22 02:50:00,59.7,59.7,30.21,NNE,17,0.0,0.0,100,0.00,,,0.00,WeatherCatV1.15B25,2013-06-22 06:50:00,
2013-06-22 02:55:00,59.7,59.7,30.21,NNE,17,0.0,0.0,100,0.00,,,0.00,WeatherCatV1.15B25,2013-06-22 06:55:00,
2013-06-22 03:00:00,59.5,59.5,30.21,NNE,17,0.0,0.0,100,0.00,,,0.00,WeatherCatV1.15B25,2013-06-22 07:00:00,
2013-06-22 03:05:00,59.5,59.5,30.21,NNE,17,0.0,0.0,100,0.00,,,0.00,WeatherCatV1.15B25,2013-06-22 07:05:00,
2013-06-22 03:10:00,59.5,59.5,30.22,NNE,17,0.0,0.0,100,0.00,,,0.00,WeatherCatV1.15B25,2013-06-22 07:10:00,
2013-06-22 03:15:00,59.4,59.4,30.21,NNE,17,0.0,0.0,100,0.00,,,0.00,WeatherCatV1.15B25,2013-06-22 07:15:00,
2013-06-22 03:20:00,59.4,59.4,30.21,NNE,17,0.0,0.0,100,0.00,,,0.00,WeatherCatV1.15B25,2013-06-22 07:20:00,
2013-06-22 03:25:00,59.2,59.2,30.20,NNE,17,0.0,0.0,100,0.00,,,0.00,WeatherCatV1.15B25,2013-06-22 07:25:00,
2013-06-22 03:30:00,59.2,59.2,30.21,NNE,17,0.0,0.0,100,0.00,,,0.00,WeatherCatV1.15B25,2013-06-22 07:30:00,
2013-06-22 03:35:00,59.2,59.2,30.20,NNE,17,0.0,0.0,100,0.00,,,0.00,WeatherCatV1.15B25,2013-06-22 07:35:00,
2013-06-22 03:40:00,59.3,59.3,30.20,NNE,17,0.0,0.0,100,0.00,,,0.00,WeatherCatV1.15B25,2013-06-22 07:40:00,
2013-06-22 03:45:00,59.2,59.2,30.20,NNE,17,0.0,0.0,100,0.00,,,0.00,WeatherCatV1.15B25,2013-06-22 07:45:00,
2013-06-22 03:50:00,59.2,59.2,30.20,NNE,17,0.0,0.0,100,0.00,,,0.00,WeatherCatV1.15B25,2013-06-22 07:50:00,
2013-06-22 03:55:00,59.2,59.2,30.20,NNE,17,0.0,0.0,100,0.00,,,0.00,WeatherCatV1.15B25,2013-06-22 07:55:00,
2013-06-22 04:00:00,59.4,59.4,30.21,NNE,17,0.0,0.0,100,0.00,,,0.00,WeatherCatV1.15B25,2013-06-22 08:00:00,
2013-06-22 04:05:00,59.4,59.4,30.20,NNE,17,0.0,0.0,100,0.00,,,0.00,WeatherCatV1.15B25,2013-06-22 08:05:00,
2013-06-22 04:10:00,59.2,59.2,30.20,NNE,17,0.0,0.0,100,0.00,,,0.00,WeatherCatV1.15B25,2013-06-22 08:10:00,
2013-06-22 04:15:00,59.2,59.2,30.20,NNE,17,0.0,0.0,100,0.00,,,0.00,WeatherCatV1.15B25,2013-06-22 08:15:00,
2013-06-22 04:20:00,59.1,59.1,30.21,NNE,17,0.0,0.0,100,0.00,,,0.00,WeatherCatV1.15B25,2013-06-22 08:20:00,
2013-06-22 04:25:00,59.2,59.2,30.21,NNE,17,0.0,0.0,100,0.00,,,0.00,WeatherCatV1.15B25,2013-06-22 08:25:00,
2013-06-22 04:30:00,59.2,59.2,30.21,NNE,17,0.0,0.0,100,0.00,,,0.00,WeatherCatV1.15B25,2013-06-22 08:30:00,
2013-06-22 04:35:00,59.1,59.1,30.20,NNE,17,0.0,0.0,100,0.00,,,0.00,WeatherCatV1.15B25,2013-06-22 08:35:00,
2013-06-22 04:40:00,59.1,59.1,30.20,NNE,17,0.0,0.0,100,0.00,,,0.00,WeatherCatV1.15B25,2013-06-22 08:40:00,
2013-06-22 04:45:00,59.1,59.1,30.21,NNE,17,0.0,0.0,100,0.00,,,0.00,WeatherCatV1.15B25,2013-06-22 08:45:00,
2013-06-22 04:50:00,58.9,58.9,30.21,NNE,17,0.0,0.0,100,0.00,,,0.00,WeatherCatV1.15B25,2013-06-22 08:50:00,
2013-06-22 04:55:00,58.9,58.9,30.20,NNE,17,0.0,0.0,100,0.00,,,0.00,WeatherCatV1.15B25,2013-06-22 08:55:00,
2013-06-22 05:00:00,58.9,58.9,30.21,NNE,17,0.0,0.0,100,0.00,,,0.00,WeatherCatV1.15B25,2013-06-22 09:00:00,
2013-06-22 05:05:00,58.9,58.9,30.21,NNE,17,0.0,0.0,100,0.00,,,0.00,WeatherCatV1.15B25,2013-06-22 09:05:00,
2013-06-22 05:10:00,58.9,58.9,30.20,NNE,25,0.0,0.0,100,0.00,,,0.00,WeatherCatV1.15B25,2013-06-22 09:10:00,
2013-06-22 05:15:00,58.8,58.8,30.21,NNE,25,0.0,0.0,100,0.00,,,0.00,WeatherCatV1.15B25,2013-06-22 09:15:00,
2013-06-22 05:20:00,58.8,58.8,30.21,NNE,25,0.0,0.0,100,0.00,,,0.00,WeatherCatV1.15B25,2013-06-22 09:20:00,
2013-06-22 05:25:00,58.8,58.8,30.21,NNE,25,0.0,0.0,100,0.00,,,0.00,WeatherCatV1.15B25,2013-06-22 09:25:00,
2013-06-22 05:30:00,58.8,58.8,30.21,NNE,25,0.0,0.0,100,0.00,,,0.00,WeatherCatV1.15B25,2013-06-22 09:30:00,
2013-06-22 05:35:00,58.8,58.8,30.21,NNE,25,0.0,0.0,100,0.00,,,0.00,WeatherCatV1.15B25,2013-06-22 09:35:00,
2013-06-22 05:40:00,59.0,59.0,30.21,NNE,25,0.0,0.0,100,0.00,,,0.00,WeatherCatV1.15B25,2013-06-22 09:40:00,
2013-06-22 05:45:00,58.9,58.9,30.20,NNE,25,0.0,0.0,100,0.00,,,0.00,WeatherCatV1.15B25,2013-06-22 09:45:00,
2013-06-22 05:50:00,59.1,59.1,30.20,NNE,25,0.0,0.0,100,0.00,,,0.00,WeatherCatV1.15B25,2013-06-22 09:50:00,
2013-06-22 05:55:00,59.2,59.2,30.21,NNE,25,0.0,0.0,100,0.00,,,0.00,WeatherCatV1.15B25,2013-06-22 09:55:00,
2013-06-22 06:00:00,59.2,59.2,30.21,NNE,25,0.0,0.0,100,0.00,,,0.00,WeatherCatV1.15B25,2013-06-22 10:00:00,
2013-06-22 06:05:00,59.4,59.4,30.20,NNE,25,0.0,0.0,100,0.00,,,0.00,WeatherCatV1.15B25,2013-06-22 10:05:00,
2013-06-22 06:11:00,59.4,59.4,30.21,NNE,25,0.0,0.0,100,0.00,,,0.00,WeatherCatV1.15B25,2013-06-22 10:11:00,
2013-06-22 06:15:00,59.7,59.7,30.20,NNE,25,0.0,0.0,100,0.00,,,0.00,WeatherCatV1.15B25,2013-06-22 10:15:00,
2013-06-22 06:20:00,59.7,59.7,30.21,NNE,25,0.0,0.0,100,0.00,,,0.00,WeatherCatV1.15B25,2013-06-22 10:20:00,
2013-06-22 06:25:00,60.3,60.3,30.21,NNE,25,0.0,0.0,100,0.00,,,0.00,WeatherCatV1.15B25,2013-06-22 10:25:00,
2013-06-22 06:30:00,60.5,60.5,30.21,North,6,0.0,0.0,100,0.00,,,0.00,WeatherCatV1.15B25,2013-06-22 10:30:00,
2013-06-22 06:35:00,60.5,60.5,30.21,North,6,0.0,0.0,100,0.00,,,0.00,WeatherCatV1.15B25,2013-06-22 10:35:00,
2013-06-22 06:40:00,61.3,61.3,30.21,North,6,0.0,0.0,100,0.00,,,0.00,WeatherCatV1.15B25,2013-06-22 10:40:00,
2013-06-22 06:45:00,61.6,61.6,30.21,North,6,0.0,0.0,100,0.00,,,0.00,WeatherCatV1.15B25,2013-06-22 10:45:00,
2013-06-22 06:50:00,61.9,61.9,30.21,North,6,0.0,0.0,100,0.00,,,0.00,WeatherCatV1.15B25,2013-06-22 10:50:00,
2013-06-22 06:52:00,62.0,62.0,30.21,North,6,0.0,0.0,100,0.00,,,0.00,WeatherCatV1.15B25,2013-06-22 10:52:00,
2013-06-22 06:57:00,62.0,62.0,30.21,North,5,0.0,0.0,100,0.00,,,0.00,WeatherCatV1.15B25,2013-06-22 10:57:00,
2013-06-22 07:02:00,62.8,62.8,30.20,North,6,1.0,3.0,100,0.00,,,0.00,WeatherCatV1.15B25,2013-06-22 11:02:00,
2013-06-22 07:07:00,63.4,63.4,30.20,North,6,0.0,2.0,100,0.00,,,0.00,WeatherCatV1.15B25,2013-06-22 11:07:00,
2013-06-22 07:12:00,63.6,63.6,30.20,North,6,0.0,0.0,100,0.00,,,0.00,WeatherCatV1.15B25,2013-06-22 11:12:00,
2013-06-22 07:17:00,63.6,63.6,30.20,North,6,0.0,0.0,100,0.00,,,0.00,WeatherCatV1.15B25,2013-06-22 11:17:00,
2013-06-22 07:22:00,63.6,63.6,30.19,ENE,58,0.0,0.0,100,0.00,,,0.00,WeatherCatV1.15B25,2013-06-22 11:22:00,
2013-06-22 07:27:00,63.6,63.6,30.19,ENE,58,0.0,0.0,100,0.00,,,0.00,WeatherCatV1.15B25,2013-06-22 11:27:00,
2013-06-22 07:32:00,67.4,65.0,30.19,ENE,61,1.0,2.0,92,0.00,,,0.00,WeatherCatV1.15B25,2013-06-22 11:32:00,
2013-06-22 07:37:00,68.4,65.0,30.20,SSW,194,3.0,5.0,89,0.00,,,0.00,WeatherCatV1.15B25,2013-06-22 11:37:00,
2013-06-22 07:42:00,68.7,64.7,30.20,SSW,195,1.0,6.0,87,0.00,,,0.00,WeatherCatV1.15B25,2013-06-22 11:42:00,
2013-06-22 07:47:00,69.0,65.0,30.20,SSW,195,0.0,3.0,87,0.00,,,0.00,WeatherCatV1.15B25,2013-06-22 11:47:00,
2013-06-22 07:52:00,69.5,64.8,30.20,SSW,195,2.0,3.0,85,0.00,,,0.00,WeatherCatV1.15B25,2013-06-22 11:52:00,
2013-06-22 07:57:00,70.0,64.9,30.19,SSW,195,0.0,2.0,84,0.00,,,0.00,WeatherCatV1.15B25,2013-06-22 11:57:00,
2013-06-22 08:02:00,70.3,64.5,30.20,North,0,0.0,5.0,82,0.00,,,0.00,WeatherCatV1.15B25,2013-06-22 12:02:00,
2013-06-22 08:07:00,71.0,64.9,30.20,North,0,2.0,3.0,81,0.00,,,0.00,WeatherCatV1.15B25,2013-06-22 12:07:00,
2013-06-22 08:12:00,71.5,64.3,30.20,SW,233,4.0,5.0,78,0.00,,,0.00,WeatherCatV1.15B25,2013-06-22 12:12:00,
2013-06-22 08:17:00,71.8,64.6,30.19,SW,220,0.0,4.0,78,0.00,,,0.00,WeatherCatV1.15B25,2013-06-22 12:17:00,
2013-06-22 08:22:00,71.8,64.6,30.20,SW,221,0.0,0.0,78,0.00,,,0.00,WeatherCatV1.15B25,2013-06-22 12:22:00,
2013-06-22 08:27:00,72.3,64.7,30.19,SSW,201,0.0,0.0,77,0.00,,,0.00,WeatherCatV1.15B25,2013-06-22 12:27:00,
2013-06-22 08:32:00,72.7,65.1,30.20,SSW,198,4.0,4.0,77,0.00,,,0.00,WeatherCatV1.15B25,2013-06-22 12:32:00,
2013-06-22 08:37:00,72.8,65.2,30.20,SSW,198,0.0,0.0,77,0.00,,,0.00,WeatherCatV1.15B25,2013-06-22 12:37:00,
2013-06-22 08:42:00,73.9,66.6,30.20,SSW,193,1.0,6.0,78,0.00,,,0.00,WeatherCatV1.15B25,2013-06-22 12:42:00,
2013-06-22 08:47:00,74.1,66.4,30.20,SSW,193,2.0,4.0,77,0.00,,,0.00,WeatherCatV1.15B25,2013-06-22 12:47:00,
2013-06-22 08:52:00,74.3,66.2,30.20,SSW,193,2.0,5.0,76,0.00,,,0.00,WeatherCatV1.15B25,2013-06-22 12:52:00,
2013-06-22 08:57:00,74.7,66.2,30.19,SSW,202,3.0,5.0,75,0.00,,,0.00,WeatherCatV1.15B25,2013-06-22 12:57:00,
2013-06-22 09:02:00,74.7,65.8,30.20,SSW,202,1.0,3.0,74,0.00,,,0.00,WeatherCatV1.15B25,2013-06-22 13:02:00,
2013-06-22 09:07:00,74.7,65.8,30.19,SSW,208,1.0,3.0,74,0.00,,,0.00,WeatherCatV1.15B25,2013-06-22 13:07:00,
2013-06-22 09:12:00,75.2,65.9,30.20,SSW,201,5.0,6.0,73,0.00,,,0.00,WeatherCatV1.15B25,2013-06-22 13:12:00,
2013-06-22 09:17:00,75.8,66.5,30.20,SSW,192,5.0,5.0,73,0.00,,,0.00,WeatherCatV1.15B25,2013-06-22 13:17:00,
2013-06-22 09:22:00,76.0,66.7,30.19,SSW,193,0.0,1.0,73,0.00,,,0.00,WeatherCatV1.15B25,2013-06-22 13:22:00,
2013-06-22 09:27:00,76.0,66.3,30.19,SSW,193,2.0,4.0,72,0.00,,,0.00,WeatherCatV1.15B25,2013-06-22 13:27:00,
2013-06-22 09:32:00,75.9,66.6,30.20,SW,217,2.0,6.0,73,0.00,,,0.00,WeatherCatV1.15B25,2013-06-22 13:32:00,
2013-06-22 09:36:00,76.0,66.7,30.20,SSW,203,2.0,5.0,73,0.00,,,0.00,WeatherCatV1.15B25,2013-06-22 13:36:00,
2013-06-22 09:41:00,76.3,67.0,30.20,SSW,202,3.0,5.0,73,0.00,,,0.00,WeatherCatV1.15B25,2013-06-22 13:41:00,
2013-06-22 09:46:00,76.5,67.2,30.19,SSW,208,3.0,6.0,73,0.00,,,0.00,WeatherCatV1.15B25,2013-06-22 13:46:00,
2013-06-22 09:51:00,76.7,67.4,30.20,SSW,207,1.0,2.0,73,0.00,,,0.00,WeatherCatV1.15B25,2013-06-22 13:51:00,
2013-06-22 09:56:00,76.5,67.2,30.20,SSW,207,5.0,6.0,73,0.00,,,0.00,WeatherCatV1.15B25,2013-06-22 13:56:00,
2013-06-22 10:01:00,76.5,66.8,30.19,SSW,207,0.0,5.0,72,0.00,,,0.00,WeatherCatV1.15B25,2013-06-22 14:01:00,
2013-06-22 10:06:00,76.3,66.6,30.20,SW,222,6.0,6.0,72,0.00,,,0.00,WeatherCatV1.15B25,2013-06-22 14:06:00,
2013-06-22 10:11:00,75.8,66.9,30.20,SSW,200,1.0,4.0,74,0.00,,,0.00,WeatherCatV1.15B25,2013-06-22 14:11:00,
2013-06-22 10:16:00,75.5,66.6,30.20,SSW,200,1.0,2.0,74,0.00,,,0.00,WeatherCatV1.15B25,2013-06-22 14:16:00,
2013-06-22 10:21:00,75.6,67.5,30.20,SSW,200,0.0,0.0,76,0.00,,,0.00,WeatherCatV1.15B25,2013-06-22 14:21:00,
2013-06-22 10:26:00,75.6,67.5,30.19,SSW,200,0.0,0.0,76,0.00,,,0.00,WeatherCatV1.15B25,2013-06-22 14:26:00,
2013-06-22 10:31:00,75.6,67.5,30.20,SSW,200,0.0,0.0,76,0.00,,,0.00,WeatherCatV1.15B25,2013-06-22 14:31:00,
2013-06-22 10:36:00,75.6,67.5,30.19,SSW,200,0.0,0.0,76,0.00,,,0.00,WeatherCatV1.15B25,2013-06-22 14:36:00,
2013-06-22 10:41:00,75.6,67.5,30.20,SSW,200,0.0,0.0,76,0.00,,,0.00,WeatherCatV1.15B25,2013-06-22 14:41:00,
2013-06-22 10:46:00,75.6,67.5,30.20,SSW,200,0.0,0.0,76,0.00,,,0.00,WeatherCatV1.15B25,2013-06-22 14:46:00,
2013-06-22 10:51:00,-999.0,32.0,30.20,North,0,0.0,0.0,50,0.00,,,0.00,WeatherCatV1.15B25,2013-06-22 14:51:00,
2013-06-22 10:56:00,-999.0,32.0,30.20,North,0,0.0,0.0,50,0.00,,,0.00,WeatherCatV1.15B25,2013-06-22 14:56:00,
2013-06-22 11:01:00,-999.0,32.0,30.20,North,0,0.0,0.0,50,0.00,,,0.00,WeatherCatV1.15B25,2013-06-22 15:01:00,
2013-06-22 11:07:00,-999.0,32.0,30.19,North,0,0.0,0.0,50,0.00,,,0.00,WeatherCatV1.15B25,2013-06-22 15:07:00,
2013-06-22 11:12:00,-999.0,32.0,30.20,North,0,0.0,0.0,50,0.00,,,0.00,WeatherCatV1.15B25,2013-06-22 15:12:00,
2013-06-22 11:17:00,-999.0,32.0,30.21,North,0,0.0,0.0,50,0.00,,,0.00,WeatherCatV1.15B25,2013-06-22 15:17:00,
2013-06-22 11:22:00,80.9,60.5,30.20,WSW,241,0.0,2.0,50,0.00,,,0.00,WeatherCatV1.15B25,2013-06-22 15:22:00,
2013-06-22 11:27:00,80.9,60.5,30.20,WSW,241,0.0,0.0,50,0.00,,,0.00,WeatherCatV1.15B25,2013-06-22 15:27:00,
2013-06-22 11:32:00,80.9,60.5,30.20,WSW,237,0.0,2.0,50,0.00,,,0.00,WeatherCatV1.15B25,2013-06-22 15:32:00,
2013-06-22 11:37:00,80.9,60.5,30.20,WSW,237,0.0,0.0,50,0.00,,,0.00,WeatherCatV1.15B25,2013-06-22 15:37:00,
2013-06-22 11:42:00,82.0,61.5,30.20,SSW,205,0.0,8.0,50,0.00,,,0.00,WeatherCatV1.15B25,2013-06-22 15:42:00,
2013-06-22 11:47:00,82.0,69.5,30.20,South,190,0.0,3.0,66,0.00,,,0.00,WeatherCatV1.15B25,2013-06-22 15:47:00,
2013-06-22 11:52:00,82.0,69.0,30.20,South,190,0.0,0.0,65,0.00,,,0.00,WeatherCatV1.15B25,2013-06-22 15:52:00,
2013-06-22 11:57:00,82.0,69.5,30.19,SSW,200,3.0,3.0,66,0.00,,,0.00,WeatherCatV1.15B25,2013-06-22 15:57:00,
2013-06-22 12:02:00,83.2,69.3,30.19,SSW,201,0.0,3.0,63,0.00,,,0.00,WeatherCatV1.15B25,2013-06-22 16:02:00,
2013-06-22 12:07:00,83.4,68.5,30.19,South,182,0.0,3.0,61,0.00,,,0.00,WeatherCatV1.15B25,2013-06-22 16:07:00,
2013-06-22 12:12:00,83.6,69.6,30.20,South,183,0.0,4.0,63,0.00,,,0.00,WeatherCatV1.15B25,2013-06-22 16:12:00,
2013-06-22 12:17:00,84.1,69.6,30.19,South,186,1.0,3.0,62,0.00,,,0.00,WeatherCatV1.15B25,2013-06-22 16:17:00,
2013-06-22 12:22:00,84.3,68.9,30.20,SSW,198,0.0,8.0,60,0.00,,,0.00,WeatherCatV1.15B25,2013-06-22 16:22:00,
2013-06-22 12:27:00,84.4,69.4,30.19,SSW,192,0.0,2.0,61,0.00,,,0.00,WeatherCatV1.15B25,2013-06-22 16:27:00,
2013-06-22 12:32:00,84.7,69.2,30.19,South,189,7.0,7.0,60,0.00,,,0.00,WeatherCatV1.15B25,2013-06-22 16:32:00,
2013-06-22 12:37:00,84.4,69.0,30.19,South,191,0.0,0.0,60,0.00,,,0.00,WeatherCatV1.15B25,2013-06-22 16:37:00,
2013-06-22 12:42:00,84.1,68.7,30.18,South,190,0.0,3.0,60,0.00,,,0.00,WeatherCatV1.15B25,2013-06-22 16:42:00,
2013-06-22 12:47:00,84.0,69.1,30.19,SSW,192,3.0,4.0,61,0.00,,,0.00,WeatherCatV1.15B25,2013-06-22 16:47:00,
2013-06-22 12:52:00,83.6,68.7,30.18,SSW,192,1.0,4.0,61,0.00,,,0.00,WeatherCatV1.15B25,2013-06-22 16:52:00,
2013-06-22 12:57:00,83.6,68.2,30.18,SSW,197,2.0,4.0,60,0.00,,,0.00,WeatherCatV1.15B25,2013-06-22 16:57:00,
2013-06-22 13:02:00,83.9,68.5,30.18,SSW,200,1.0,3.0,60,0.00,,,0.00,WeatherCatV1.15B25,2013-06-22 17:02:00,
2013-06-22 13:07:00,84.1,68.2,30.18,South,191,3.0,5.0,59,0.00,,,0.00,WeatherCatV1.15B25,2013-06-22 17:07:00,
2013-06-22 13:12:00,84.9,68.4,30.18,South,191,4.0,5.0,58,0.00,,,0.00,WeatherCatV1.15B25,2013-06-22 17:12:00,
2013-06-22 13:17:00,85.1,68.1,30.17,SSW,202,3.0,4.0,57,0.00,,,0.00,WeatherCatV1.15B25,2013-06-22 17:17:00,
2013-06-22 13:22:00,84.9,67.4,30.18,South,186,2.0,8.0,56,0.00,,,0.00,WeatherCatV1.15B25,2013-06-22 17:22:00,
2013-06-22 13:27:00,85.3,68.8,30.17,South,186,3.0,5.0,58,0.00,,,0.00,WeatherCatV1.15B25,2013-06-22 17:27:00,
2013-06-22 13:32:00,85.2,67.7,30.17,WNW,285,2.0,4.0,56,0.00,,,0.00,WeatherCatV1.15B25,2013-06-22 17:32:00,
2013-06-22 13:37:00,85.1,68.1,30.16,SSW,209,4.0,8.0,57,0.00,,,0.00,WeatherCatV1.15B25,2013-06-22 17:37:00,
2013-06-22 13:42:00,85.1,68.1,30.16,SSW,201,1.0,4.0,57,0.00,,,0.00,WeatherCatV1.15B25,2013-06-22 17:42:00,
2013-06-22 13:47:00,84.7,67.7,30.16,SSW,196,3.0,5.0,57,0.00,,,0.00,WeatherCatV1.15B25,2013-06-22 17:47:00,
2013-06-22 13:52:00,84.9,67.9,30.17,SW,214,4.0,5.0,57,0.00,,,0.00,WeatherCatV1.15B25,2013-06-22 17:52:00,
2013-06-22 13:57:00,85.1,68.1,30.16,SSW,202,0.0,4.0,57,0.00,,,0.00,WeatherCatV1.15B25,2013-06-22 17:57:00,
2013-06-22 14:02:00,85.1,67.1,30.16,SSW,202,6.0,6.0,55,0.00,,,0.00,WeatherCatV1.15B25,2013-06-22 18:02:00,
2013-06-22 14:07:00,85.3,67.3,30.16,SSW,201,0.0,6.0,55,0.00,,,0.00,WeatherCatV1.15B25,2013-06-22 18:07:00,
2013-06-22 14:12:00,85.7,67.1,30.16,West,277,0.0,5.0,54,0.00,,,0.00,WeatherCatV1.15B25,2013-06-22 18:12:00,
2013-06-22 14:17:00,86.2,68.1,30.16,SSW,197,0.0,5.0,55,0.00,,,0.00,WeatherCatV1.15B25,2013-06-22 18:17:00,
2013-06-22 14:22:00,85.9,67.3,30.16,SSW,200,4.0,6.0,54,0.00,,,0.00,WeatherCatV1.15B25,2013-06-22 18:22:00,
2013-06-22 14:27:00,86.1,66.9,30.16,SSW,207,4.0,6.0,53,0.00,,,0.00,WeatherCatV1.15B25,2013-06-22 18:27:00,
2013-06-22 14:32:00,85.9,67.8,30.16,SSW,205,11.0,11.0,55,0.00,,,0.00,WeatherCatV1.15B25,2013-06-22 18:32:00,
2013-06-22 14:37:00,85.9,67.8,30.16,SSW,206,4.0,8.0,55,0.00,,,0.00,WeatherCatV1.15B25,2013-06-22 18:37:00,
2013-06-22 14:42:00,85.9,67.8,30.15,SSW,197,4.0,7.0,55,0.00,,,0.00,WeatherCatV1.15B25,2013-06-22 18:42:00,
2013-06-22 14:47:00,86.2,67.6,30.15,SSW,199,5.0,6.0,54,0.00,,,0.00,WeatherCatV1.15B25,2013-06-22 18:47:00,
2013-06-22 14:52:00,85.9,65.6,30.15,SW,217,2.0,7.0,51,0.00,,,0.00,WeatherCatV1.15B25,2013-06-22 18:52:00,
2013-06-22 14:57:00,85.9,67.3,30.15,SSW,209,9.0,9.0,54,0.00,,,0.00,WeatherCatV1.15B25,2013-06-22 18:57:00,
2013-06-22 15:02:00,85.3,66.2,30.15,South,187,0.0,6.0,53,0.00,,,0.00,WeatherCatV1.15B25,2013-06-22 19:02:00,
2013-06-22 15:07:00,85.1,67.1,30.15,South,187,1.0,4.0,55,0.00,,,0.00,WeatherCatV1.15B25,2013-06-22 19:07:00,
2013-06-22 15:12:00,84.9,67.4,30.15,South,191,1.0,7.0,56,0.00,,,0.00,WeatherCatV1.15B25,2013-06-22 19:12:00,
2013-06-22 15:17:00,84.9,67.4,30.14,South,191,2.0,6.0,56,0.00,,,0.00,WeatherCatV1.15B25,2013-06-22 19:17:00,
2013-06-22 15:22:00,84.9,67.9,30.15,South,191,1.0,4.0,57,0.00,,,0.00,WeatherCatV1.15B25,2013-06-22 19:22:00,
2013-06-22 15:27:00,84.7,67.2,30.14,SW,223,1.0,4.0,56,0.00,,,0.00,WeatherCatV1.15B25,2013-06-22 19:27:00,
2013-06-22 15:32:00,84.6,67.1,30.14,SSW,195,2.0,6.0,56,0.00,,,0.00,WeatherCatV1.15B25,2013-06-22 19:32:00,
2013-06-22 15:37:00,84.7,67.2,30.13,South,185,4.0,7.0,56,0.00,,,0.00,WeatherCatV1.15B25,2013-06-22 19:37:00,
2013-06-22 15:42:00,84.7,66.7,30.13,SSW,209,2.0,7.0,55,0.00,,,0.00,WeatherCatV1.15B25,2013-06-22 19:42:00,
2013-06-22 15:47:00,84.5,66.5,30.12,SSW,208,5.0,7.0,55,0.00,,,0.00,WeatherCatV1.15B25,2013-06-22 19:47:00,
2013-06-22 15:52:00,84.1,66.2,30.12,SSW,205,7.0,8.0,55,0.00,,,0.00,WeatherCatV1.15B25,2013-06-22 19:52:00,
2013-06-22 15:57:00,83.7,66.8,30.13,SSW,209,1.0,5.0,57,0.00,,,0.00,WeatherCatV1.15B25,2013-06-22 19:57:00,
2013-06-22 16:02:00,83.6,67.2,30.12,SSW,204,3.0,8.0,58,0.00,,,0.00,WeatherCatV1.15B25,2013-06-22 20:02:00,
2013-06-22 16:07:00,83.3,66.9,30.12,SSW,205,2.0,4.0,58,0.00,,,0.00,WeatherCatV1.15B25,2013-06-22 20:07:00,
2013-06-22 16:12:00,83.3,67.4,30.12,SW,215,2.0,2.0,59,0.00,,,0.00,WeatherCatV1.15B25,2013-06-22 20:12:00,
2013-06-22 16:17:00,83.6,68.2,30.12,SSW,210,3.0,7.0,60,0.00,,,0.00,WeatherCatV1.15B25,2013-06-22 20:17:00,
2013-06-22 16:22:00,83.6,67.2,30.12,SSW,203,2.0,8.0,58,0.00,,,0.00,WeatherCatV1.15B25,2013-06-22 20:22:00,
2013-06-22 16:27:00,83.2,66.4,30.11,SSW,201,5.0,7.0,57,0.00,,,0.00,WeatherCatV1.15B25,2013-06-22 20:27:00,
2013-06-22 16:32:00,83.2,66.9,30.11,SSW,207,4.0,9.0,58,0.00,,,0.00,WeatherCatV1.15B25,2013-06-22 20:32:00,
2013-06-22 16:37:00,83.0,66.7,30.11,SSW,203,3.0,7.0,58,0.00,,,0.00,WeatherCatV1.15B25,2013-06-22 20:37:00,
2013-06-22 16:42:00,83.0,66.7,30.11,SW,220,3.0,10.0,58,0.00,,,0.00,WeatherCatV1.15B25,2013-06-22 20:42:00,
2013-06-22 16:47:00,82.8,66.0,30.11,SW,217,3.0,8.0,57,0.00,,,0.00,WeatherCatV1.15B25,2013-06-22 20:47:00,
2013-06-22 16:52:00,83.0,66.7,30.11,SSW,205,4.0,9.0,58,0.00,,,0.00,WeatherCatV1.15B25,2013-06-22 20:52:00,
2013-06-22 16:57:00,83.0,66.7,30.11,SSW,205,3.0,6.0,58,0.00,,,0.00,WeatherCatV1.15B25,2013-06-22 20:57:00,
2013-06-22 17:02:00,83.0,66.7,30.11,SSW,204,3.0,7.0,58,0.00,,,0.00,WeatherCatV1.15B25,2013-06-22 21:02:00,
2013-06-22 17:07:00,83.0,66.2,30.11,SSW,211,4.0,5.0,57,0.00,,,0.00,WeatherCatV1.15B25,2013-06-22 21:07:00,
2013-06-22 17:12:00,83.0,66.2,30.11,South,180,4.0,6.0,57,0.00,,,0.00,WeatherCatV1.15B25,2013-06-22 21:12:00,
2013-06-22 17:17:00,82.9,66.1,30.11,South,190,2.0,4.0,57,0.00,,,0.00,WeatherCatV1.15B25,2013-06-22 21:17:00,
2013-06-22 17:22:00,82.8,66.0,30.11,South,191,1.0,4.0,57,0.00,,,0.00,WeatherCatV1.15B25,2013-06-22 21:22:00,
2013-06-22 17:27:00,82.8,65.5,30.11,SSW,192,3.0,8.0,56,0.00,,,0.00,WeatherCatV1.15B25,2013-06-22 21:27:00,
2013-06-22 17:32:00,82.6,65.3,30.11,SSW,202,2.0,8.0,56,0.00,,,0.00,WeatherCatV1.15B25,2013-06-22 21:32:00,
2013-06-22 17:37:00,82.2,64.9,30.11,SSW,201,4.0,7.0,56,0.00,,,0.00,WeatherCatV1.15B25,2013-06-22 21:37:00,
2013-06-22 17:42:00,82.0,64.2,30.11,SSW,192,4.0,7.0,55,0.00,,,0.00,WeatherCatV1.15B25,2013-06-22 21:42:00,
2013-06-22 17:47:00,82.0,64.7,30.11,SSW,192,2.0,4.0,56,0.00,,,0.00,WeatherCatV1.15B25,2013-06-22 21:47:00,
2013-06-22 17:52:00,81.8,64.5,30.11,SSW,210,5.0,9.0,56,0.00,,,0.00,WeatherCatV1.15B25,2013-06-22 21:52:00,
2013-06-22 17:57:00,81.6,64.4,30.11,SSW,212,1.0,6.0,56,0.00,,,0.00,WeatherCatV1.15B25,2013-06-22 21:57:00,
2013-06-22 18:02:00,81.4,64.2,30.10,SSW,207,7.0,7.0,56,0.00,,,0.00,WeatherCatV1.15B25,2013-06-22 22:02:00,
2013-06-22 18:07:00,81.3,64.6,30.11,SSW,205,2.0,6.0,57,0.00,,,0.00,WeatherCatV1.15B25,2013-06-22 22:07:00,
2013-06-22 18:12:00,81.2,64.0,30.11,SSW,209,2.0,7.0,56,0.00,,,0.00,WeatherCatV1.15B25,2013-06-22 22:12:00,
2013-06-22 18:17:00,81.1,64.4,30.11,SSW,209,1.0,6.0,57,0.00,,,0.00,WeatherCatV1.15B25,2013-06-22 22:17:00,
2013-06-22 18:22:00,81.1,64.9,30.10,SSW,209,1.0,5.0,58,0.00,,,0.00,WeatherCatV1.15B25,2013-06-22 22:22:00,
2013-06-22 18:27:00,81.0,65.3,30.11,SSW,209,1.0,4.0,59,0.00,,,0.00,WeatherCatV1.15B25,2013-06-22 22:27:00,
2013-06-22 18:32:00,80.9,64.7,30.11,SSW,209,2.0,4.0,58,0.00,,,0.00,WeatherCatV1.15B25,2013-06-22 22:32:00,
2013-06-22 18:37:00,80.7,65.0,30.10,SSW,209,1.0,3.0,59,0.00,,,0.00,WeatherCatV1.15B25,2013-06-22 22:37:00,
2013-06-22 18:38:00,80.7,65.0,30.10,SSW,209,2.0,3.0,59,0.00,,,0.00,WeatherCatV1.15B25,2013-06-22 22:38:00,
2013-06-22 18:43:00,80.5,64.8,30.10,SSW,210,1.0,4.0,59,0.00,,,0.00,WeatherCatV1.15B25,2013-06-22 22:43:00,
2013-06-22 18:48:00,80.3,64.6,30.10,SSW,210,2.0,3.0,59,0.00,,,0.00,WeatherCatV1.15B25,2013-06-22 22:48:00,
2013-06-22 18:53:00,80.2,65.0,30.10,SSW,210,1.0,3.0,60,0.00,,,0.00,WeatherCatV1.15B25,2013-06-22 22:53:00,
2013-06-22 18:58:00,79.9,64.7,30.10,SSW,210,0.0,3.0,60,0.00,,,0.00,WeatherCatV1.15B25,2013-06-22 22:58:00,
2013-06-22 19:03:00,79.8,65.6,30.10,SSW,210,2.0,3.0,62,0.00,,,0.00,WeatherCatV1.15B25,2013-06-22 23:03:00,
2013-06-22 19:08:00,79.6,64.9,30.10,SSW,210,1.0,3.0,61,0.00,,,0.00,WeatherCatV1.15B25,2013-06-22 23:08:00,
2013-06-22 19:13:00,79.4,65.7,30.10,SSW,210,2.0,3.0,63,0.00,,,0.00,WeatherCatV1.15B25,2013-06-22 23:13:00,
2013-06-22 19:18:00,79.2,65.0,30.10,SSW,210,2.0,4.0,62,0.00,,,0.00,WeatherCatV1.15B25,2013-06-22 23:18:00,
2013-06-22 19:23:00,78.8,65.1,30.10,SSW,210,2.0,3.0,63,0.00,,,0.00,WeatherCatV1.15B25,2013-06-22 23:23:00,
2013-06-22 19:28:00,78.7,65.5,30.10,SSW,210,1.0,2.0,64,0.00,,,0.00,WeatherCatV1.15B25,2013-06-22 23:28:00,
2013-06-22 19:33:00,78.3,64.6,30.10,SSW,210,0.0,3.0,63,0.00,,,0.00,WeatherCatV1.15B25,2013-06-22 23:33:00,
2013-06-22 19:38:00,77.9,64.7,30.10,SSW,210,2.0,3.0,64,0.00,,,0.00,WeatherCatV1.15B25,2013-06-22 23:38:00,
2013-06-22 19:43:00,77.7,64.5,30.10,SSW,210,0.0,3.0,64,0.00,,,0.00,WeatherCatV1.15B25,2013-06-22 23:43:00,
2013-06-22 19:48:00,77.6,65.3,30.10,SSW,210,0.0,2.0,66,0.00,,,0.00,WeatherCatV1.15B25,2013-06-22 23:48:00,
2013-06-22 19:53:00,77.2,64.9,30.10,SSW,210,1.0,2.0,66,0.00,,,0.00,WeatherCatV1.15B25,2013-06-22 23:53:00,
2013-06-22 19:58:00,76.9,64.7,30.10,SSW,210,2.0,3.0,66,0.00,,,0.00,WeatherCatV1.15B25,2013-06-22 23:58:00,
2013-06-22 20:03:00,76.7,64.9,30.10,SSW,210,0.0,5.0,67,0.00,,,0.00,WeatherCatV1.15B25,2013-06-23 00:03:00,
2013-06-22 20:08:00,76.3,64.1,30.10,SSW,210,2.0,2.0,66,0.00,,,0.00,WeatherCatV1.15B25,2013-06-23 00:08:00,
2013-06-22 20:13:00,76.2,64.4,30.11,SSW,210,0.0,0.0,67,0.00,,,0.00,WeatherCatV1.15B25,2013-06-23 00:13:00,
2013-06-22 20:18:00,75.8,64.5,30.11,SSW,210,0.0,3.0,68,0.00,,,0.00,WeatherCatV1.15B25,2013-06-23 00:18:00,
2013-06-22 20:23:00,75.6,64.3,30.11,SSW,210,3.0,4.0,68,0.00,,,0.00,WeatherCatV1.15B25,2013-06-23 00:23:00,
2013-06-22 20:28:00,75.1,64.2,30.11,SSW,210,3.0,5.0,69,0.00,,,0.00,WeatherCatV1.15B25,2013-06-23 00:28:00,
2013-06-22 20:33:00,74.9,64.0,30.11,SSW,210,2.0,7.0,69,0.00,,,0.00,WeatherCatV1.15B25,2013-06-23 00:33:00,
2013-06-22 20:38:00,74.6,64.2,30.11,SSW,210,3.0,5.0,70,0.00,,,0.00,WeatherCatV1.15B25,2013-06-23 00:38:00,
2013-06-22 20:43:00,74.4,64.4,30.11,SSW,210,2.0,4.0,71,0.00,,,0.00,WeatherCatV1.15B25,2013-06-23 00:43:00,
2013-06-22 20:48:00,74.2,64.2,30.12,SSW,210,2.0,3.0,71,0.00,,,0.00,WeatherCatV1.15B25,2013-06-23 00:48:00,
2013-06-22 20:53:00,74.1,64.1,30.12,SSW,210,1.0,4.0,71,0.00,,,0.00,WeatherCatV1.15B25,2013-06-23 00:53:00,
2013-06-22 20:58:00,73.9,63.9,30.12,SSW,210,1.0,3.0,71,0.00,,,0.00,WeatherCatV1.15B25,2013-06-23 00:58:00,
2013-06-22 21:03:00,73.7,64.5,30.13,SSW,210,1.0,4.0,73,0.00,,,0.00,WeatherCatV1.15B25,2013-06-23 01:03:00,
2013-06-22 21:08:00,73.4,64.2,30.13,SSW,210,1.0,6.0,73,0.00,,,0.00,WeatherCatV1.15B25,2013-06-23 01:08:00,
2013-06-22 21:13:00,73.2,64.0,30.13,SSW,209,2.0,2.0,73,0.00,,,0.00,WeatherCatV1.15B25,2013-06-23 01:13:00,
2013-06-22 21:18:00,73.2,64.0,30.13,SSW,210,0.0,3.0,73,0.00,,,0.00,WeatherCatV1.15B25,2013-06-23 01:18:00,
2013-06-22 21:23:00,73.0,64.2,30.12,SSW,210,0.0,3.0,74,0.00,,,0.00,WeatherCatV1.15B25,2013-06-23 01:23:00,
2013-06-22 21:28:00,72.9,64.1,30.13,SSW,210,0.0,2.0,74,0.00,,,0.00,WeatherCatV1.15B25,2013-06-23 01:28:00,
2013-06-22 21:33:00,72.7,64.3,30.13,SSW,210,4.0,4.0,75,0.00,,,0.00,WeatherCatV1.15B25,2013-06-23 01:33:00,
2013-06-22 21:38:00,72.5,64.5,30.14,SSW,210,2.0,4.0,76,0.00,,,0.00,WeatherCatV1.15B25,2013-06-23 01:38:00,
2013-06-22 21:43:00,72.4,64.0,30.13,SSW,210,1.0,3.0,75,0.00,,,0.00,WeatherCatV1.15B25,2013-06-23 01:43:00,
2013-06-22 21:48:00,72.2,64.2,30.14,SSW,210,1.0,2.0,76,0.00,,,0.00,WeatherCatV1.15B25,2013-06-23 01:48:00,
2013-06-22 21:53:00,72.0,64.0,30.13,SSW,210,0.0,2.0,76,0.00,,,0.00,WeatherCatV1.15B25,2013-06-23 01:53:00,
2013-06-22 21:58:00,71.8,64.2,30.14,SSW,210,1.0,6.0,77,0.00,,,0.00,WeatherCatV1.15B25,2013-06-23 01:58:00,
2013-06-22 22:03:00,71.7,64.1,30.13,SSW,210,1.0,4.0,77,0.00,,,0.00,WeatherCatV1.15B25,2013-06-23 02:03:00,
2013-06-22 22:08:00,71.7,64.5,30.13,SSW,210,0.0,1.0,78,0.00,,,0.00,WeatherCatV1.15B25,2013-06-23 02:08:00,
2013-06-22 22:13:00,71.5,64.3,30.14,SSW,210,2.0,3.0,78,0.00,,,0.00,WeatherCatV1.15B25,2013-06-23 02:13:00,
2013-06-22 22:18:00,71.3,64.1,30.14,SSW,210,1.0,1.0,78,0.00,,,0.00,WeatherCatV1.15B25,2013-06-23 02:18:00,
2013-06-22 22:23:00,71.1,64.2,30.14,SSW,210,1.0,3.0,79,0.00,,,0.00,WeatherCatV1.15B25,2013-06-23 02:23:00,
2013-06-22 22:28:00,71.0,64.5,30.14,SSW,210,3.0,5.0,80,0.00,,,0.00,WeatherCatV1.15B25,2013-06-23 02:28:00,
2013-06-22 22:33:00,71.0,64.5,30.14,SSW,210,2.0,4.0,80,0.00,,,0.00,WeatherCatV1.15B25,2013-06-23 02:33:00,
2013-06-22 22:38:00,71.0,64.5,30.14,SSW,210,2.0,6.0,80,0.00,,,0.00,WeatherCatV1.15B25,2013-06-23 02:38:00,
2013-06-22 22:43:00,71.0,64.5,30.15,SSW,210,2.0,2.0,80,0.00,,,0.00,WeatherCatV1.15B25,2013-06-23 02:43:00,
2013-06-22 22:48:00,71.0,64.5,30.15,SSW,210,0.0,2.0,80,0.00,,,0.00,WeatherCatV1.15B25,2013-06-23 02:48:00,
2013-06-22 22:53:00,70.8,64.7,30.14,SSW,210,0.0,2.0,81,0.00,,,0.00,WeatherCatV1.15B25,2013-06-23 02:53:00,
2013-06-22 22:58:00,70.8,64.3,30.14,SSW,210,0.0,4.0,80,0.00,,,0.00,WeatherCatV1.15B25,2013-06-23 02:58:00,
2013-06-22 23:03:00,70.8,64.7,30.14,SSW,210,0.0,2.0,81,0.00,,,0.00,WeatherCatV1.15B25,2013-06-23 03:03:00,
2013-06-22 23:08:00,70.7,64.6,30.14,SSW,210,1.0,3.0,81,0.00,,,0.00,WeatherCatV1.15B25,2013-06-23 03:08:00,
2013-06-22 23:13:00,70.6,64.5,30.15,SSW,210,2.0,3.0,81,0.00,,,0.00,WeatherCatV1.15B25,2013-06-23 03:13:00,
2013-06-22 23:18:00,70.7,64.6,30.15,SSW,210,0.0,3.0,81,0.00,,,0.00,WeatherCatV1.15B25,2013-06-23 03:18:00,
2013-06-22 23:23:00,70.5,64.4,30.15,SSW,210,2.0,3.0,81,0.00,,,0.00,WeatherCatV1.15B25,2013-06-23 03:23:00,
2013-06-22 23:28:00,70.5,64.4,30.15,SSW,210,0.0,1.0,81,0.00,,,0.00,WeatherCatV1.15B25,2013-06-23 03:28:00,
2013-06-22 23:33:00,70.5,64.4,30.15,SSW,210,0.0,1.0,81,0.00,,,0.00,WeatherCatV1.15B25,2013-06-23 03:33:00,
2013-06-22 23:38:00,70.3,64.2,30.14,SSW,210,0.0,2.0,81,0.00,,,0.00,WeatherCatV1.15B25,2013-06-23 03:38:00,
2013-06-22 23:43:00,70.3,63.8,30.14,SSW,210,3.0,4.0,80,0.00,,,0.00,WeatherCatV1.15B25,2013-06-23 03:43:00,
2013-06-22 23:48:00,70.3,64.2,30.15,SSW,210,1.0,3.0,81,0.00,,,0.00,WeatherCatV1.15B25,2013-06-23 03:48:00,
2013-06-22 23:53:00,70.2,64.1,30.15,SSW,210,0.0,2.0,81,0.00,,,0.00,WeatherCatV1.15B25,2013-06-23 03:53:00,
2013-06-22 23:58:00,70.2,64.1,30.15,SSW,210,0.0,2.0,81,0.00,,,0.00,WeatherCatV1.15B25,2013-06-23 03:58:00,